sensor_id;sensor_type;location;lat;lon;timestamp;pressure;altitude;pressure_sealevel;temperature;humidity
60820;BME280;46641;48.904;9.126;2023-01-31T00:04:43;99490.09;;;8.24;65.29
60820;BME280;46641;48.904;9.126;2023-01-31T00:09:33;99488.31;;;8.25;65.56
60820;BME280;46641;48.904;9.126;2023-01-31T00:14:24;99478.00;;;8.23;65.07
60820;BME280;46641;48.904;9.126;2023-01-31T00:19:15;99475.38;;;8.23;65.28
60820;BME280;46641;48.904;9.126;2023-01-31T00:24:05;99469.44;;;8.21;65.03
60820;BME280;46641;48.904;9.126;2023-01-31T00:28:57;99475.25;;;8.25;64.81
60820;BME280;46641;48.904;9.126;2023-01-31T00:33:48;99472.56;;;8.26;64.21
60820;BME280;46641;48.904;9.126;2023-01-31T00:38:39;99471.72;;;8.26;63.94
60820;BME280;46641;48.904;9.126;2023-01-31T00:43:31;99469.22;;;8.24;63.52
60820;BME280;46641;48.904;9.126;2023-01-31T00:48:22;99470.25;;;8.22;63.99
60820;BME280;46641;48.904;9.126;2023-01-31T00:53:13;99470.25;;;8.22;63.99
60820;BME280;46641;48.904;9.126;2023-01-31T00:58:03;99472.25;;;8.18;64.13
60820;BME280;46641;48.904;9.126;2023-01-31T01:02:54;99462.56;;;8.20;63.12
60820;BME280;46641;48.904;9.126;2023-01-31T01:07:44;99480.28;;;8.15;63.60
60820;BME280;46641;48.904;9.126;2023-01-31T01:12:34;99484.59;;;8.16;64.30
60820;BME280;46641;48.904;9.126;2023-01-31T01:17:24;99473.22;;;8.17;63.89
60820;BME280;46641;48.904;9.126;2023-01-31T01:22:15;99468.00;;;8.17;63.55
60820;BME280;46641;48.904;9.126;2023-01-31T01:27:05;99472.38;;;8.16;63.21
60820;BME280;46641;48.904;9.126;2023-01-31T01:31:55;99467.47;;;8.12;63.30
60820;BME280;46641;48.904;9.126;2023-01-31T01:36:46;99465.06;;;8.09;63.64
60820;BME280;46641;48.904;9.126;2023-01-31T01:41:37;99468.63;;;8.08;63.07
60820;BME280;46641;48.904;9.126;2023-01-31T01:46:41;99471.25;;;8.08;64.07
60820;BME280;46641;48.904;9.126;2023-01-31T01:51:33;99488.25;;;8.13;64.38
60820;BME280;46641;48.904;9.126;2023-01-31T01:56:29;99489.59;;;8.19;63.75
60820;BME280;46641;48.904;9.126;2023-01-31T02:01:23;99486.03;;;8.20;64.65
60820;BME280;46641;48.904;9.126;2023-01-31T02:06:15;99486.97;;;8.19;63.97
60820;BME280;46641;48.904;9.126;2023-01-31T02:11:18;99487.91;;;8.18;63.63
60820;BME280;46641;48.904;9.126;2023-01-31T02:16:10;99505.25;;;8.19;64.00
60820;BME280;46641;48.904;9.126;2023-01-31T02:41:39;99522.34;;;8.10;63.70
60820;BME280;46641;48.904;9.126;2023-01-31T02:46:51;99522.56;;;8.07;63.46
60820;BME280;46641;48.904;9.126;2023-01-31T02:51:45;99533.06;;;8.06;64.23
60820;BME280;46641;48.904;9.126;2023-01-31T02:56:58;99524.34;;;8.07;64.51
60820;BME280;46641;48.904;9.126;2023-01-31T03:01:55;99529.44;;;8.08;64.15
60820;BME280;46641;48.904;9.126;2023-01-31T03:06:51;99539.03;;;8.08;64.15
60820;BME280;46641;48.904;9.126;2023-01-31T03:17:13;99517.88;;;8.00;63.73
60820;BME280;46641;48.904;9.126;2023-01-31T03:22:29;99520.59;;;7.98;63.99
60820;BME280;46641;48.904;9.126;2023-01-31T03:27:22;99525.81;;;7.98;64.46
60820;BME280;46641;48.904;9.126;2023-01-31T03:32:23;99526.63;;;7.99;64.31
60820;BME280;46641;48.904;9.126;2023-01-31T03:42:32;99541.56;;;7.96;64.27
60820;BME280;46641;48.904;9.126;2023-01-31T03:47:35;99540.50;;;7.99;64.38
60820;BME280;46641;48.904;9.126;2023-01-31T03:52:38;99541.34;;;8.00;63.72
60820;BME280;46641;48.904;9.126;2023-01-31T03:57:33;99547.28;;;8.02;64.03
60820;BME280;46641;48.904;9.126;2023-01-31T04:02:30;99554.47;;;7.98;64.31
60820;BME280;46641;48.904;9.126;2023-01-31T04:07:22;99560.50;;;7.99;64.50
60820;BME280;46641;48.904;9.126;2023-01-31T04:12:13;99563.84;;;8.01;64.62
60820;BME280;46641;48.904;9.126;2023-01-31T04:17:04;99562.91;;;8.02;64.68
60820;BME280;46641;48.904;9.126;2023-01-31T04:21:54;99562.69;;;8.05;64.81
60820;BME280;46641;48.904;9.126;2023-01-31T04:26:45;99561.75;;;8.06;65.21
60820;BME280;46641;48.904;9.126;2023-01-31T04:31:35;99565.09;;;8.08;65.07
60820;BME280;46641;48.904;9.126;2023-01-31T04:36:25;99566.88;;;8.07;64.31
60820;BME280;46641;48.904;9.126;2023-01-31T04:41:16;99562.63;;;8.06;64.09
60820;BME280;46641;48.904;9.126;2023-01-31T04:46:06;99563.53;;;8.05;64.69
60820;BME280;46641;48.904;9.126;2023-01-31T04:50:57;99560.84;;;8.07;64.39
60820;BME280;46641;48.904;9.126;2023-01-31T04:55:47;99549.59;;;8.06;64.05
60820;BME280;46641;48.904;9.126;2023-01-31T05:00:37;99550.63;;;8.04;64.08
60820;BME280;46641;48.904;9.126;2023-01-31T05:05:27;99560.44;;;8.00;64.94
60820;BME280;46641;48.904;9.126;2023-01-31T05:10:18;99550.22;;;7.97;64.33
60820;BME280;46641;48.904;9.126;2023-01-31T05:15:08;99558.03;;;7.97;64.42
60820;BME280;46641;48.904;9.126;2023-01-31T05:20:00;99563.13;;;7.99;64.57
60820;BME280;46641;48.904;9.126;2023-01-31T05:24:51;99553.63;;;7.97;65.16
60820;BME280;46641;48.904;9.126;2023-01-31T05:29:41;99563.94;;;7.99;64.27
60820;BME280;46641;48.904;9.126;2023-01-31T05:34:32;99566.47;;;8.01;64.60
60820;BME280;46641;48.904;9.126;2023-01-31T05:39:22;99558.66;;;8.01;65.08
60820;BME280;46641;48.904;9.126;2023-01-31T05:44:13;99556.03;;;8.01;64.87
60820;BME280;46641;48.904;9.126;2023-01-31T05:49:05;99568.94;;;8.02;64.72
60820;BME280;46641;48.904;9.126;2023-01-31T05:53:56;99568.94;;;8.02;65.20
60820;BME280;46641;48.904;9.126;2023-01-31T05:58:46;99563.75;;;8.02;65.08
60820;BME280;46641;48.904;9.126;2023-01-31T06:03:39;99565.72;;;7.99;65.25
60820;BME280;46641;48.904;9.126;2023-01-31T06:08:29;99570.94;;;7.99;64.99
60820;BME280;46641;48.904;9.126;2023-01-31T06:13:20;99575.44;;;7.96;64.87
60820;BME280;46641;48.904;9.126;2023-01-31T06:18:11;99565.31;;;7.79;63.05
60820;BME280;46641;48.904;9.126;2023-01-31T06:23:02;99574.47;;;7.72;62.54
60820;BME280;46641;48.904;9.126;2023-01-31T06:27:54;99572.91;;;7.69;61.25
60820;BME280;46641;48.904;9.126;2023-01-31T06:32:44;99583.31;;;7.57;60.77
60820;BME280;46641;48.904;9.126;2023-01-31T06:37:35;99582.88;;;7.50;61.54
60820;BME280;46641;48.904;9.126;2023-01-31T06:42:25;99596.22;;;7.45;60.50
60820;BME280;46641;48.904;9.126;2023-01-31T06:47:15;99593.84;;;6.88;61.92
60820;BME280;46641;48.904;9.126;2023-01-31T06:52:06;99592.41;;;7.24;62.57
60820;BME280;46641;48.904;9.126;2023-01-31T06:56:56;99583.50;;;7.41;62.62
60820;BME280;46641;48.904;9.126;2023-01-31T07:01:46;99585.59;;;7.48;62.59
60820;BME280;46641;48.904;9.126;2023-01-31T07:06:37;99580.91;;;7.54;62.20
60820;BME280;46641;48.904;9.126;2023-01-31T07:11:27;99581.66;;;7.56;62.83
60820;BME280;46641;48.904;9.126;2023-01-31T07:16:17;99582.59;;;7.55;62.78
60820;BME280;46641;48.904;9.126;2023-01-31T07:21:08;99589.38;;;7.57;62.58
60820;BME280;46641;48.904;9.126;2023-01-31T07:26:02;99602.28;;;7.59;62.98
60820;BME280;46641;48.904;9.126;2023-01-31T07:30:53;99598.94;;;7.57;62.73
60820;BME280;46641;48.904;9.126;2023-01-31T07:35:43;99602.50;;;7.56;62.92
60820;BME280;46641;48.904;9.126;2023-01-31T07:40:33;99612.81;;;7.57;62.94
60820;BME280;46641;48.904;9.126;2023-01-31T07:45:24;99617.28;;;7.55;63.50
60820;BME280;46641;48.904;9.126;2023-01-31T07:50:14;99623.53;;;7.53;63.20
60820;BME280;46641;48.904;9.126;2023-01-31T07:55:05;99627.09;;;7.52;63.75
60820;BME280;46641;48.904;9.126;2023-01-31T07:59:55;99634.06;;;7.51;63.36
60820;BME280;46641;48.904;9.126;2023-01-31T08:04:46;99642.78;;;7.50;63.41
60820;BME280;46641;48.904;9.126;2023-01-31T08:09:36;99645.41;;;7.50;63.42
60820;BME280;46641;48.904;9.126;2023-01-31T08:14:28;99638.41;;;7.50;63.86
60820;BME280;46641;48.904;9.126;2023-01-31T08:19:18;99645.50;;;7.48;64.14
60820;BME280;46641;48.904;9.126;2023-01-31T08:24:08;99642.91;;;7.48;64.00
60820;BME280;46641;48.904;9.126;2023-01-31T08:28:59;99628.00;;;7.50;63.76
60820;BME280;46641;48.904;9.126;2023-01-31T08:33:49;99609.75;;;7.50;63.99
60820;BME280;46641;48.904;9.126;2023-01-31T08:38:42;99623.66;;;7.51;64.15
60820;BME280;46641;48.904;9.126;2023-01-31T08:43:33;99627.09;;;7.52;64.40
60820;BME280;46641;48.904;9.126;2023-01-31T08:48:23;99613.13;;;7.53;64.19
60820;BME280;46641;48.904;9.126;2023-01-31T08:53:14;99613.84;;;7.55;64.11
60820;BME280;46641;48.904;9.126;2023-01-31T08:58:04;99609.38;;;7.57;64.26
60820;BME280;46641;48.904;9.126;2023-01-31T09:02:57;99610.22;;;7.57;63.99
60820;BME280;46641;48.904;9.126;2023-01-31T09:07:47;99612.50;;;7.62;64.53
60820;BME280;46641;48.904;9.126;2023-01-31T09:12:38;99610.75;;;7.62;63.68
60820;BME280;46641;48.904;9.126;2023-01-31T09:17:29;99614.16;;;7.63;64.03
60820;BME280;46641;48.904;9.126;2023-01-31T09:22:19;99611.47;;;7.64;64.21
60820;BME280;46641;48.904;9.126;2023-01-31T09:27:09;99599.09;;;7.68;64.16
60820;BME280;46641;48.904;9.126;2023-01-31T09:32:00;99592.09;;;7.68;64.67
60820;BME280;46641;48.904;9.126;2023-01-31T09:36:50;99599.78;;;7.70;64.55
60820;BME280;46641;48.904;9.126;2023-01-31T09:41:43;99600.53;;;7.72;64.40
60820;BME280;46641;48.904;9.126;2023-01-31T09:46:36;99598.56;;;7.76;64.48
60820;BME280;46641;48.904;9.126;2023-01-31T09:51:28;99593.97;;;7.79;64.16
60820;BME280;46641;48.904;9.126;2023-01-31T09:56:39;99597.31;;;7.81;64.26
60820;BME280;46641;48.904;9.126;2023-01-31T10:06:52;99611.81;;;7.85;63.69
60820;BME280;46641;48.904;9.126;2023-01-31T10:11:51;99607.13;;;7.90;63.42
60820;BME280;46641;48.904;9.126;2023-01-31T10:21:52;99612.66;;;7.99;63.76
60820;BME280;46641;48.904;9.126;2023-01-31T10:26:45;99596.19;;;7.98;64.15
60820;BME280;46641;48.904;9.126;2023-01-31T10:31:51;99600.34;;;8.01;64.12
60820;BME280;46641;48.904;9.126;2023-01-31T10:36:54;99596.72;;;8.03;63.93
60820;BME280;46641;48.904;9.126;2023-01-31T10:46:54;99603.78;;;8.14;63.88
60820;BME280;46641;48.904;9.126;2023-01-31T10:56:48;99599.00;;;8.20;63.47
60820;BME280;46641;48.904;9.126;2023-01-31T11:01:38;99598.66;;;8.25;63.90
60820;BME280;46641;48.904;9.126;2023-01-31T11:06:28;99588.97;;;8.27;63.08
60820;BME280;46641;48.904;9.126;2023-01-31T11:11:23;99568.84;;;8.29;63.11
60820;BME280;46641;48.904;9.126;2023-01-31T11:16:13;99546.28;;;8.28;63.27
60820;BME280;46641;48.904;9.126;2023-01-31T11:21:06;99548.47;;;8.34;63.36
60820;BME280;46641;48.904;9.126;2023-01-31T11:25:57;99537.66;;;8.40;63.26
60820;BME280;46641;48.904;9.126;2023-01-31T11:30:49;99512.38;;;8.41;63.56
60820;BME280;46641;48.904;9.126;2023-01-31T11:35:50;99515.41;;;8.48;63.29
60820;BME280;46641;48.904;9.126;2023-01-31T11:40:41;99510.78;;;8.51;64.00
60820;BME280;46641;48.904;9.126;2023-01-31T11:45:42;99519.47;;;8.52;61.53
60820;BME280;46641;48.904;9.126;2023-01-31T11:50:38;99515.31;;;8.49;62.95
60820;BME280;46641;48.904;9.126;2023-01-31T11:55:36;99507.13;;;8.54;63.09
60820;BME280;46641;48.904;9.126;2023-01-31T12:00:31;99514.22;;;8.64;62.49
60820;BME280;46641;48.904;9.126;2023-01-31T12:05:30;99486.31;;;8.28;59.19
60820;BME280;46641;48.904;9.126;2023-01-31T12:15:19;99478.44;;;8.17;61.27
60820;BME280;46641;48.904;9.126;2023-01-31T12:20:16;99455.00;;;8.41;61.24
60820;BME280;46641;48.904;9.126;2023-01-31T12:25:16;99443.25;;;8.59;60.30
60820;BME280;46641;48.904;9.126;2023-01-31T12:40:25;99435.22;;;8.74;60.42
60820;BME280;46641;48.904;9.126;2023-01-31T12:45:37;99442.50;;;8.81;59.89
60820;BME280;46641;48.904;9.126;2023-01-31T12:50:41;99438.00;;;8.83;60.51
60820;BME280;46641;48.904;9.126;2023-01-31T13:00:57;99415.97;;;8.87;61.54
60820;BME280;46641;48.904;9.126;2023-01-31T13:06:12;99401.50;;;8.95;61.72
60820;BME280;46641;48.904;9.126;2023-01-31T13:11:14;99402.69;;;9.02;60.72
60820;BME280;46641;48.904;9.126;2023-01-31T13:16:19;99383.44;;;8.92;61.40
60820;BME280;46641;48.904;9.126;2023-01-31T13:21:14;99390.41;;;8.32;61.63
60820;BME280;46641;48.904;9.126;2023-01-31T13:31:21;99370.41;;;8.92;61.54
60820;BME280;46641;48.904;9.126;2023-01-31T13:36:28;99384.19;;;9.05;61.39
60820;BME280;46641;48.904;9.126;2023-01-31T13:41:27;99389.63;;;9.13;61.52
60820;BME280;46641;48.904;9.126;2023-01-31T13:46:22;99383.25;;;9.17;61.57
60820;BME280;46641;48.904;9.126;2023-01-31T13:51:16;99378.72;;;9.19;61.81
60820;BME280;46641;48.904;9.126;2023-01-31T13:56:13;99352.63;;;9.19;61.88
60820;BME280;46641;48.904;9.126;2023-01-31T14:01:12;99381.25;;;9.21;61.65
60820;BME280;46641;48.904;9.126;2023-01-31T14:06:04;99367.94;;;9.24;61.69
60820;BME280;46641;48.904;9.126;2023-01-31T14:10:56;99342.53;;;9.26;62.22
60820;BME280;46641;48.904;9.126;2023-01-31T14:15:49;99348.47;;;9.28;62.08
60820;BME280;46641;48.904;9.126;2023-01-31T14:20:40;99343.97;;;9.30;62.38
60820;BME280;46641;48.904;9.126;2023-01-31T14:25:40;99330.78;;;9.31;62.29
60820;BME280;46641;48.904;9.126;2023-01-31T14:30:38;99326.28;;;9.33;62.33
60820;BME280;46641;48.904;9.126;2023-01-31T14:41:08;99326.03;;;9.36;62.67
60820;BME280;46641;48.904;9.126;2023-01-31T14:51:14;99336.25;;;9.40;62.17
60820;BME280;46641;48.904;9.126;2023-01-31T15:01:32;99331.38;;;9.46;62.59
60820;BME280;46641;48.904;9.126;2023-01-31T15:06:27;99357.38;;;9.48;62.67
60820;BME280;46641;48.904;9.126;2023-01-31T15:16:42;99361.53;;;9.50;62.63
60820;BME280;46641;48.904;9.126;2023-01-31T15:21:44;99361.41;;;9.52;62.71
60820;BME280;46641;48.904;9.126;2023-01-31T15:26:45;99352.97;;;9.48;63.00
60820;BME280;46641;48.904;9.126;2023-01-31T15:31:40;99352.63;;;9.53;62.65
60820;BME280;46641;48.904;9.126;2023-01-31T15:36:36;99351.66;;;9.54;62.20
60820;BME280;46641;48.904;9.126;2023-01-31T15:41:39;99349.06;;;9.54;62.32
60820;BME280;46641;48.904;9.126;2023-01-31T15:46:31;99339.34;;;9.56;62.54
60820;BME280;46641;48.904;9.126;2023-01-31T15:51:22;99354.78;;;9.59;62.28
60820;BME280;46641;48.904;9.126;2023-01-31T15:56:22;99345.25;;;9.58;62.09
60820;BME280;46641;48.904;9.126;2023-01-31T16:01:14;99357.47;;;9.57;62.58
60820;BME280;46641;48.904;9.126;2023-01-31T16:06:22;99357.63;;;9.56;62.28
60820;BME280;46641;48.904;9.126;2023-01-31T16:11:13;99350.38;;;9.59;62.22
60820;BME280;46641;48.904;9.126;2023-01-31T16:16:04;99352.16;;;9.59;62.35
60820;BME280;46641;48.904;9.126;2023-01-31T16:20:56;99345.25;;;9.58;62.32
60820;BME280;46641;48.904;9.126;2023-01-31T16:26:09;99356.78;;;9.55;62.85
60820;BME280;46641;48.904;9.126;2023-01-31T16:31:09;99357.47;;;9.57;62.63
60820;BME280;46641;48.904;9.126;2023-01-31T16:36:06;99354.19;;;9.55;62.85
60820;BME280;46641;48.904;9.126;2023-01-31T16:40:59;99361.75;;;9.58;62.82
60820;BME280;46641;48.904;9.126;2023-01-31T16:45:54;99365.47;;;9.56;62.81
60820;BME280;46641;48.904;9.126;2023-01-31T16:50:44;99367.13;;;9.57;62.25
60820;BME280;46641;48.904;9.126;2023-01-31T16:55:35;99371.75;;;9.53;62.91
60820;BME280;46641;48.904;9.126;2023-01-31T17:05:20;99378.63;;;9.54;62.64
60820;BME280;46641;48.904;9.126;2023-01-31T17:10:19;99376.16;;;9.53;62.54
60820;BME280;46641;48.904;9.126;2023-01-31T17:15:17;99377.22;;;9.50;61.21
60820;BME280;46641;48.904;9.126;2023-01-31T17:20:12;99383.50;;;9.48;62.74
60820;BME280;46641;48.904;9.126;2023-01-31T17:25:13;99379.94;;;9.49;62.42
60820;BME280;46641;48.904;9.126;2023-01-31T17:30:04;99377.44;;;9.47;62.50
60820;BME280;46641;48.904;9.126;2023-01-31T17:34:54;99368.88;;;9.45;62.74
60820;BME280;46641;48.904;9.126;2023-01-31T17:39:44;99370.19;;;9.51;63.22
60820;BME280;46641;48.904;9.126;2023-01-31T17:44:35;99362.38;;;9.51;62.99
60820;BME280;46641;48.904;9.126;2023-01-31T17:49:26;99350.94;;;9.52;62.41
60820;BME280;46641;48.904;9.126;2023-01-31T17:54:18;99348.34;;;9.52;62.96
60820;BME280;46641;48.904;9.126;2023-01-31T17:59:08;99341.22;;;9.54;63.23
60820;BME280;46641;48.904;9.126;2023-01-31T18:03:58;99329.56;;;9.58;63.15
60820;BME280;46641;48.904;9.126;2023-01-31T18:08:49;99339.19;;;9.57;63.21
60820;BME280;46641;48.904;9.126;2023-01-31T18:13:41;99340.16;;;9.56;63.37
60820;BME280;46641;48.904;9.126;2023-01-31T18:18:31;99341.56;;;9.60;63.18
60820;BME280;46641;48.904;9.126;2023-01-31T18:23:22;99352.84;;;9.61;63.27
60820;BME280;46641;48.904;9.126;2023-01-31T18:28:12;99345.72;;;9.63;62.97
60820;BME280;46641;48.904;9.126;2023-01-31T18:33:02;99342.97;;;9.65;63.18
60820;BME280;46641;48.904;9.126;2023-01-31T18:37:53;99353.56;;;9.63;63.14
60820;BME280;46641;48.904;9.126;2023-01-31T18:42:44;99342.16;;;9.64;62.80
60820;BME280;46641;48.904;9.126;2023-01-31T18:47:34;99341.22;;;9.65;62.82
60820;BME280;46641;48.904;9.126;2023-01-31T18:52:25;99338.72;;;9.64;63.12
60820;BME280;46641;48.904;9.126;2023-01-31T18:57:15;99341.22;;;9.65;63.55
60820;BME280;46641;48.904;9.126;2023-01-31T19:02:07;99348.34;;;9.63;63.41
60820;BME280;46641;48.904;9.126;2023-01-31T19:06:58;99330.03;;;9.63;63.43
60820;BME280;46641;48.904;9.126;2023-01-31T19:11:48;99331.69;;;9.64;63.51
60820;BME280;46641;48.904;9.126;2023-01-31T19:16:40;99342.88;;;9.66;63.48
60820;BME280;46641;48.904;9.126;2023-01-31T19:21:32;99333.38;;;9.65;63.48
60820;BME280;46641;48.904;9.126;2023-01-31T19:26:23;99342.97;;;9.65;63.29
60820;BME280;46641;48.904;9.126;2023-01-31T19:31:19;99347.50;;;9.63;61.82
60820;BME280;46641;48.904;9.126;2023-01-31T19:36:11;99333.28;;;9.55;62.89
60820;BME280;46641;48.904;9.126;2023-01-31T19:41:03;99319.25;;;9.56;63.52
60820;BME280;46641;48.904;9.126;2023-01-31T19:45:54;99313.53;;;9.63;62.93
60820;BME280;46641;48.904;9.126;2023-01-31T19:50:44;99314.38;;;9.63;63.42
60820;BME280;46641;48.904;9.126;2023-01-31T19:55:34;99308.56;;;9.59;63.44
60820;BME280;46641;48.904;9.126;2023-01-31T20:00:25;99301.16;;;9.65;63.32
60820;BME280;46641;48.904;9.126;2023-01-31T20:05:15;99313.41;;;9.64;63.39
60820;BME280;46641;48.904;9.126;2023-01-31T20:10:06;99316.59;;;9.68;63.13
60820;BME280;46641;48.904;9.126;2023-01-31T20:14:56;99342.50;;;9.71;63.36
60820;BME280;46641;48.904;9.126;2023-01-31T20:19:47;99339.88;;;9.71;62.81
60820;BME280;46641;48.904;9.126;2023-01-31T20:24:37;99329.81;;;9.66;62.45
60820;BME280;46641;48.904;9.126;2023-01-31T20:29:27;99324.25;;;9.59;62.13
60820;BME280;46641;48.904;9.126;2023-01-31T20:34:18;99322.72;;;9.46;61.71
60820;BME280;46641;48.904;9.126;2023-01-31T20:39:09;99318.91;;;9.39;61.95
60820;BME280;46641;48.904;9.126;2023-01-31T20:44:01;99324.84;;;9.41;62.50
60820;BME280;46641;48.904;9.126;2023-01-31T20:48:51;99326.41;;;9.43;62.37
60820;BME280;46641;48.904;9.126;2023-01-31T20:53:41;99323.66;;;9.45;62.58
60820;BME280;46641;48.904;9.126;2023-01-31T20:58:34;99320.34;;;9.43;62.14
60820;BME280;46641;48.904;9.126;2023-01-31T21:03:25;99301.09;;;9.44;62.98
60820;BME280;46641;48.904;9.126;2023-01-31T21:08:16;99289.69;;;9.45;62.29
60820;BME280;46641;48.904;9.126;2023-01-31T21:13:07;99279.00;;;9.48;63.13
60820;BME280;46641;48.904;9.126;2023-01-31T21:17:58;99273.03;;;9.57;63.01
60820;BME280;46641;48.904;9.126;2023-01-31T21:22:48;99270.91;;;9.62;63.27
60820;BME280;46641;48.904;9.126;2023-01-31T21:27:38;99285.47;;;9.65;63.00
60820;BME280;46641;48.904;9.126;2023-01-31T21:32:29;99285.38;;;9.66;63.00
60820;BME280;46641;48.904;9.126;2023-01-31T21:37:19;99288.69;;;9.68;63.08
60820;BME280;46641;48.904;9.126;2023-01-31T21:42:09;99286.91;;;9.69;63.22
60820;BME280;46641;48.904;9.126;2023-01-31T21:47:05;99295.59;;;9.69;63.01
60820;BME280;46641;48.904;9.126;2023-01-31T21:51:56;99298.88;;;9.71;63.05
60820;BME280;46641;48.904;9.126;2023-01-31T21:56:46;99294.38;;;9.73;62.97
60820;BME280;46641;48.904;9.126;2023-01-31T22:01:36;99322.16;;;9.74;62.90
60820;BME280;46641;48.904;9.126;2023-01-31T22:06:38;99327.28;;;9.76;62.90
60820;BME280;46641;48.904;9.126;2023-01-31T22:11:29;99329.91;;;9.76;62.96
60820;BME280;46641;48.904;9.126;2023-01-31T22:16:22;99346.53;;;9.75;63.06
60820;BME280;46641;48.904;9.126;2023-01-31T22:21:18;99347.25;;;9.77;62.40
60820;BME280;46641;48.904;9.126;2023-01-31T22:26:14;99340.22;;;9.77;62.76
60820;BME280;46641;48.904;9.126;2023-01-31T22:31:07;99346.28;;;9.78;62.39
60820;BME280;46641;48.904;9.126;2023-01-31T22:35:58;99340.94;;;9.68;61.43
60820;BME280;46641;48.904;9.126;2023-01-31T22:40:48;99334.59;;;9.50;61.67
60820;BME280;46641;48.904;9.126;2023-01-31T22:45:46;99323.19;;;9.40;62.11
60820;BME280;46641;48.904;9.126;2023-01-31T22:50:37;99315.69;;;9.35;62.90
60820;BME280;46641;48.904;9.126;2023-01-31T22:55:27;99307.28;;;9.43;63.14
60820;BME280;46641;48.904;9.126;2023-01-31T23:00:18;99281.84;;;9.45;63.01
60820;BME280;46641;48.904;9.126;2023-01-31T23:05:08;99284.69;;;9.53;63.33
60820;BME280;46641;48.904;9.126;2023-01-31T23:09:58;99289.19;;;9.62;63.08
60820;BME280;46641;48.904;9.126;2023-01-31T23:14:49;99276.47;;;9.69;62.86
60820;BME280;46641;48.904;9.126;2023-01-31T23:19:39;99278.94;;;9.70;62.89
60820;BME280;46641;48.904;9.126;2023-01-31T23:24:29;99282.53;;;9.69;63.11
60820;BME280;46641;48.904;9.126;2023-01-31T23:29:19;99276.47;;;9.69;63.31
60820;BME280;46641;48.904;9.126;2023-01-31T23:34:10;99266.84;;;9.69;63.10
60820;BME280;46641;48.904;9.126;2023-01-31T23:39:00;99260.88;;;9.67;63.37
60820;BME280;46641;48.904;9.126;2023-01-31T23:43:50;99262.69;;;9.67;63.51
60820;BME280;46641;48.904;9.126;2023-01-31T23:48:40;99260.88;;;9.67;63.38
60820;BME280;46641;48.904;9.126;2023-01-31T23:53:31;99264.47;;;9.66;63.32
60820;BME280;46641;48.904;9.126;2023-01-31T23:58:21;99258.28;;;9.67;63.59
